SBCT/CWB METAR and TAF weather

Enter ICAO airport designator
Station Type Date Time Source
SBCT METAR 2021/09/28 04:00 UTC NOAA

SBCT 280400Z 07004KT 4000 BR BKN003 16/16 Q1020


Station Type Date Time Source
SBCT Decoded METAR 2021/09/28 04:00 UTC NOAA

Curitiba Aeroporto , Brazil (SBCT) 25-31S 049-10W 908M
Sep 28, 2021 - 12:00 AM EDT / 2021.09.28 0400 UTC
Wind: from the ENE (070 degrees) at 5 MPH (4 KT):0
Visibility: 2 mile(s):0
Sky conditions: mostly cloudy
Weather: mist
Temperature: 60 F (16 C)
Dew Point: 60 F (16 C)
Relative Humidity: 100%
Pressure (altimeter): 30.12 in. Hg (1020 hPa)
ob: SBCT 280400Z 07004KT 4000 BR BKN003 16/16 Q1020
cycle: 4

Station Type Date Time Source
SBCT TAF 2021/09/28 06:10 UTC NOAA

TAF SBCT 280300Z 2806/2906 05005KT 4000 BR BKN003 TN14/2807Z TX29/2815Z
BECMG 2807/2808 0900 FG BKN002
BECMG 2810/2811 CAVOK
BECMG 2813/2814 32005KT
BECMG 2816/2817 11008KT 9999 SCT040
BECMG 2821/2823 BKN005
RMK PDY

Example: see airport list